Catalina Jet — WDD8449 — position and weather

sailwx.info

Track history (hours):
 
Tides and Currents Weather Stations Pressure Air Temp Water Temp Dewpoint Dewpoint Depression Visibility Wind Speed Wind Dir Waves Ship Positions

Catalina Jet

Owner: RGWT, INC, San Pedro, CA. More information available from US FCC via Universal Licensing System and Coast Guard Vessel Documentation Center.

Last reported at 2018-Aug-19 22:30 UTC. Time now 2018-Aug-19 22:52 UTC.
Position N 33°21' W 118°19'.

Length 42 m; draft 3.7 m.

Type: High speed craft. MMSI: 367008510.

Date/timePositionNaut miles runAvg speedWind from/ knotsBaromVisibWave heightAir tempDewpointWater temp
2018-Aug-19 22:30N 33°21' W 118°19'713.5
2018-Aug-19 22:00N 33°27' W 118°17'1428.1
2018-Aug-19 21:31N 33°41' W 118°12'510.4
2018-Aug-19 21:00N 33°46' W 118°12'0 0.0
2018-Aug-19 20:30N 33°46' W 118°12'1 1.5
2018-Aug-19 20:01N 33°45' W 118°11'1325.1
2018-Aug-19 19:30N 33°33' W 118°14'1325.9
2018-Aug-19 19:00N 33°21' W 118°19'0 0.1
2018-Aug-19 18:30N 33°21' W 118°19'2 4.4
2018-Aug-19 18:01N 33°23' W 118°18'1427.7
2018-Aug-19 17:30N 33°36' W 118°14'1019.2
2018-Aug-19 17:00N 33°46' W 118°12'0 0.4
2018-Aug-19 16:30N 33°46' W 118°12'0 0.0
2018-Aug-19 16:00N 33°46' W 118°12'611.4
2018-Aug-19 15:31N 33°40' W 118°11'1529.6
2018-Aug-19 15:01N 33°26' W 118°17'611.7
2018-Aug-19 14:31N 33°21' W 118°19'4 8.3
2018-Aug-19 14:01N 33°24' W 118°17'1428.4
2018-Aug-19 13:31N 33°38' W 118°12'815.7
2018-Aug-19 13:00N 33°46' W 118°12'0 0.0
2018-Aug-19 12:30N 33°46' W 118°12'0 0.0
2018-Aug-19 12:01N 33°46' W 118°12'0 0.0
2018-Aug-19 11:30N 33°46' W 118°12'0 0.0
2018-Aug-19 11:00N 33°46' W 118°12'0 0.0
2018-Aug-19 10:30N 33°46' W 118°12'0 0.0
2018-Aug-19 10:00N 33°46' W 118°12'0 0.0
2018-Aug-19 09:30N 33°46' W 118°12'0 0.0
2018-Aug-19 09:00N 33°46' W 118°12'0 0.0
2018-Aug-19 08:30N 33°46' W 118°12'0 0.0
2018-Aug-19 08:00N 33°46' W 118°12'0 0.0
2018-Aug-19 07:30N 33°46' W 118°12'0 0.0
2018-Aug-19 07:00N 33°46' W 118°12'0 0.0
2018-Aug-19 06:30N 33°46' W 118°12'0 0.0
2018-Aug-19 06:00N 33°46' W 118°12'0 0.0
2018-Aug-19 05:30N 33°46' W 118°12'0 0.0
2018-Aug-19 05:00N 33°46' W 118°12'0 0.0
2018-Aug-19 04:30N 33°46' W 118°12'0 0.0
2018-Aug-19 04:00N 33°46' W 118°12'2 4.2
2018-Aug-19 03:30N 33°44' W 118°11'1326.1
2018-Aug-19 03:01N 33°31' W 118°14'1122.5
2018-Aug-19 02:31N 33°21' W 118°19'0 0.0
2018-Aug-19 02:00N 33°21' W 118°19'1019.3
2018-Aug-19 01:30N 33°30' W 118°16'1428.9
2018-Aug-19 01:01N 33°44' W 118°11'2 4.4
2018-Aug-19 00:30N 33°46' W 118°12'0 0.0
2018-Aug-19 00:00N 33°46' W 118°12'918.7
2018-Aug-18 23:31N 33°36' W 118°13'1427.7
2018-Aug-18 23:00N 33°23' W 118°18'3 5.7
2018-Aug-18 22:30N 33°21' W 118°19'3 6.7
2018-Aug-18 22:01N 33°24' W 118°18'1428.6
2018-Aug-18 21:31N 33°38' W 118°13'816.5
2018-Aug-18 21:00N 33°46' W 118°12'0 0.0
2018-Aug-18 20:30N 33°46' W 118°12'0 0.0
2018-Aug-18 20:00N 33°46' W 118°12'611.7
2018-Aug-18 19:31N 33°40' W 118°12'1529.4
2018-Aug-18 19:00N 33°26' W 118°17'610.8
2018-Aug-18 18:29N 33°21' W 118°19'1 2.6
2018-Aug-18 18:01N 33°22' W 118°19'1427.9
2018-Aug-18 17:31N 33°35' W 118°14'1121.0
2018-Aug-18 17:00N 33°46' W 118°12'0 0.3
2018-Aug-18 16:30N 33°46' W 118°12'1 1.4
2018-Aug-18 16:00N 33°45' W 118°11'1123.0
2018-Aug-18 15:31N 33°34' W 118°13'1428.0
2018-Aug-18 15:00N 33°21' W 118°19'0 0.2
2018-Aug-18 14:30N 33°21' W 118°19'611.8
2018-Aug-18 14:00N 33°26' W 118°17'1326.6
2018-Aug-18 13:31N 33°39' W 118°12'713.6
2018-Aug-18 13:00N 33°46' W 118°12'0 0.0
2018-Aug-18 12:30N 33°46' W 118°12'0 0.0
2018-Aug-18 12:00N 33°46' W 118°12'0 0.0
2018-Aug-18 11:31N 33°46' W 118°12'0 0.0
2018-Aug-18 11:00N 33°46' W 118°12'0 0.0
2018-Aug-18 10:30N 33°46' W 118°12'0 0.0
2018-Aug-18 04:02N 33°46' W 118°12'0 0.2
2018-Aug-18 04:00N 33°46' W 118°12'815.1
2018-Aug-18 03:30N 33°38' W 118°12'1427.5
2018-Aug-18 03:01N 33°25' W 118°17'5 9.9
2018-Aug-18 02:30N 33°21' W 118°19'0 0.3
2018-Aug-18 02:00N 33°21' W 118°19'1223.8
2018-Aug-18 01:30N 33°32' W 118°15'1427.0
2018-Aug-18 01:00N 33°45' W 118°11'1 1.8
2018-Aug-18 00:30N 33°46' W 118°12'0 0.9
2018-Aug-17 23:59N 33°45' W 118°12'1122.6
2018-Aug-17 23:30N 33°35' W 118°13'1427.1
2018-Aug-17 23:01N 33°22' W 118°19'1 2.6
2018-Aug-17 22:29N 33°21' W 118°19'4 7.7
2018-Aug-17 22:00N 33°24' W 118°18'1427.9
2018-Aug-17 21:31N 33°37' W 118°13'916.9
2018-Aug-17 21:00N 33°46' W 118°12'0 0.1
2018-Aug-17 20:31N 33°46' W 118°12'0 0.0
2018-Aug-17 20:01N 33°46' W 118°12'611.9
2018-Aug-17 19:31N 33°40' W 118°11'1529.6
2018-Aug-17 19:01N 33°26' W 118°17'611.0
2018-Aug-17 18:30N 33°21' W 118°19'0 0.9
2018-Aug-17 17:59N 33°21' W 118°19'1326.4
2018-Aug-17 17:31N 33°33' W 118°15'1325.0
2018-Aug-17 17:00N 33°45' W 118°11'1 1.2
2018-Aug-17 16:30N 33°46' W 118°12'0 0.0
2018-Aug-17 16:00N 33°46' W 118°12'611.3
2018-Aug-17 15:31N 33°40' W 118°11'1629.8
2018-Aug-17 14:59N 33°25' W 118°17'2 2.5
2018-Aug-17 14:01N 33°23' W 118°19'1428.7
2018-Aug-17 13:31N 33°37' W 118°13'917.6
2018-Aug-17 13:00N 33°46' W 118°12'0 0.0
2018-Aug-17 12:30N 33°46' W 118°12'0 0.0
2018-Aug-17 12:01N 33°46' W 118°12'0 0.0
2018-Aug-17 11:30N 33°46' W 118°12'0 0.0
2018-Aug-17 11:00N 33°46' W 118°12'0 0.0
2018-Aug-17 10:30N 33°46' W 118°12'0 0.0
2018-Aug-17 03:05N 33°46' W 118°12'0 0.1
2018-Aug-17 03:00N 33°46' W 118°12'0 0.0
2018-Aug-17 02:31N 33°46' W 118°12'918.6
2018-Aug-17 02:01N 33°36' W 118°12'1528.4
2018-Aug-17 01:29N 33°22' W 118°18'2 4.0
2018-Aug-17 01:00N 33°21' W 118°19'712.1
2018-Aug-17 00:25N 33°28' W 118°17'1229.3
2018-Aug-17 00:00N 33°39' W 118°13'713.4
2018-Aug-16 23:30N 33°46' W 118°12'0 0.0
2018-Aug-16 23:00N 33°46' W 118°12'0 0.0
2018-Aug-16 22:30N 33°46' W 118°12'510.3
2018-Aug-16 22:00N 33°41' W 118°11'1930.4
2018-Aug-16 21:23N 33°23' W 118°18'2 5.1
2018-Aug-16 20:59N 33°21' W 118°19'0 0.0
2018-Aug-16 20:29N 33°21' W 118°19'1223.5
2018-Aug-16 19:58N 33°32' W 118°14'1327.3
2018-Aug-16 19:30N 33°44' W 118°11'2 3.2
2018-Aug-16 19:00N 33°46' W 118°12'0 0.0
2018-Aug-16 18:30N 33°46' W 118°12'2 4.8
2018-Aug-16 18:00N 33°44' W 118°11'1529.7
2018-Aug-16 17:30N 33°29' W 118°16'917.4
2018-Aug-16 17:00N 33°21' W 118°19'0 0.2
2018-Aug-16 16:30N 33°21' W 118°19'1122.0
2018-Aug-16 16:00N 33°31' W 118°15'1427.2
2018-Aug-16 15:30N 33°44' W 118°11'2 3.5
2018-Aug-16 15:00N 33°46' W 118°12'0 0.0
2018-Aug-16 14:30N 33°46' W 118°12'0 0.0
2018-Aug-16 14:00N 33°46' W 118°12'0 0.0
2018-Aug-16 13:30N 33°46' W 118°12'0 0.0
2018-Aug-16 13:00N 33°46' W 118°12'0 0.0
2018-Aug-16 12:30N 33°46' W 118°12'0 0.0
2018-Aug-16 12:00N 33°46' W 118°12'0 0.0
2018-Aug-16 11:31N 33°46' W 118°12'0 0.0
2018-Aug-16 11:00N 33°46' W 118°12'0 0.0
2018-Aug-16 10:30N 33°46' W 118°12'0 0.0
2018-Aug-16 03:34N 33°46' W 118°12'0 5.4
2018-Aug-16 03:30N 33°46' W 118°12'1224.6
2018-Aug-16 03:01N 33°34' W 118°14'1325.4
2018-Aug-16 02:29N 33°21' W 118°19'0 0.0
2018-Aug-16 02:00N 33°21' W 118°19'1121.4
2018-Aug-16 01:30N 33°31' W 118°15'1428.3
2018-Aug-16 01:01N 33°44' W 118°11'2 3.3
2018-Aug-16 00:30N 33°46' W 118°12'0 0.0
2018-Aug-16 00:00N 33°46' W 118°12'816.4
2018-Aug-15 23:30N 33°38' W 118°12'1631.1
2018-Aug-15 23:01N 33°23' W 118°18'2 4.8
2018-Aug-15 22:30N 33°21' W 118°19'3 6.3
2018-Aug-15 22:00N 33°24' W 118°18'1529.7
2018-Aug-15 21:30N 33°38' W 118°13'815.9
2018-Aug-15 21:00N 33°46' W 118°12'0 0.2
2018-Aug-15 20:30N 33°46' W 118°12'0 0.0
2018-Aug-15 20:00N 33°46' W 118°12'815.5
2018-Aug-15 19:30N 33°38' W 118°12'1530.3
2018-Aug-15 19:01N 33°24' W 118°18'3 5.9
2018-Aug-15 18:27N 33°21' W 118°19'3 5.6
2018-Aug-15 18:00N 33°23' W 118°18'1327.4
2018-Aug-15 17:30N 33°36' W 118°13'1019.5
2018-Aug-15 17:00N 33°45' W 118°12'0 0.9
2018-Aug-15 16:30N 33°46' W 118°12'0 0.0
2018-Aug-15 16:01N 33°46' W 118°12'612.5
2018-Aug-15 15:31N 33°40' W 118°11'1530.0
2018-Aug-15 15:01N 33°25' W 118°17'5 9.7
2018-Aug-15 14:29N 33°21' W 118°19'4 7.7
2018-Aug-15 13:56N 33°25' W 118°18'1228.5
2018-Aug-15 13:31N 33°36' W 118°13'1019.2
2018-Aug-15 13:01N 33°46' W 118°12'0 0.1
2018-Aug-15 12:31N 33°46' W 118°12'0 0.0
2018-Aug-15 12:00N 33°46' W 118°12'0 0.0
2018-Aug-15 11:31N 33°46' W 118°12'0 0.0
2018-Aug-15 11:00N 33°46' W 118°12'0 0.0
2018-Aug-15 10:30N 33°46' W 118°12'0 0.0
2018-Aug-15 02:18N 33°46' W 118°12'517.7
2018-Aug-15 02:01N 33°41' W 118°11'1530.4
2018-Aug-15 01:30N 33°26' W 118°17'6 9.1
2018-Aug-15 00:51N 33°21' W 118°19'1 3.3
2018-Aug-15 00:31N 33°22' W 118°19'1530.1
2018-Aug-15 00:01N 33°36' W 118°13'1019.5
2018-Aug-14 23:30N 33°46' W 118°12'0 0.1
2018-Aug-14 23:00N 33°46' W 118°12'0 0.0
2018-Aug-14 22:30N 33°46' W 118°12'611.6
2018-Aug-14 22:00N 33°40' W 118°11'1529.5
2018-Aug-14 21:30N 33°26' W 118°17'611.5
2018-Aug-14 21:00N 33°21' W 118°19'0 0.0
2018-Aug-14 20:30N 33°21' W 118°19'1020.0
2018-Aug-14 20:01N 33°30' W 118°16'1428.0
2018-Aug-14 19:30N 33°44' W 118°11'2 4.6
2018-Aug-14 19:01N 33°46' W 118°12'0 0.0
2018-Aug-14 18:31N 33°46' W 118°12'4 8.5
2018-Aug-14 18:00N 33°42' W 118°11'1529.7
2018-Aug-14 17:31N 33°28' W 118°17'714.5
2018-Aug-14 17:00N 33°21' W 118°19'0 0.0
2018-Aug-14 16:30N 33°21' W 118°19'1019.1
2018-Aug-14 16:00N 33°30' W 118°15'1427.6
2018-Aug-14 15:31N 33°43' W 118°11'3 5.8
2018-Aug-14 15:00N 33°46' W 118°12'0 0.0
2018-Aug-14 14:30N 33°46' W 118°12'0 0.0
2018-Aug-14 14:00N 33°46' W 118°12'0 0.0
2018-Aug-14 13:30N 33°46' W 118°12'0 0.0
2018-Aug-14 13:00N 33°46' W 118°12'0 0.0
2018-Aug-14 12:30N 33°46' W 118°12'0 0.0
2018-Aug-14 12:00N 33°46' W 118°12'0 0.0
2018-Aug-14 11:30N 33°46' W 118°12'0 0.0
2018-Aug-14 11:00N 33°46' W 118°12'0 0.0
2018-Aug-14 04:21N 33°46' W 118°12'0 0.0
2018-Aug-14 04:01N 33°46' W 118°12'2 3.1
2018-Aug-14 03:31N 33°45' W 118°11'1427.1
2018-Aug-14 03:00N 33°31' W 118°15'1122.6
2018-Aug-14 02:30N 33°21' W 118°19'0 0.0
2018-Aug-14 02:00N 33°21' W 118°19'1122.2
2018-Aug-14 01:31N 33°31' W 118°15'1427.7
2018-Aug-14 01:00N 33°45' W 118°11'2 3.0
2018-Aug-14 00:30N 33°46' W 118°12'0 0.0
2018-Aug-14 00:00N 33°46' W 118°12'918.0
2018-Aug-13 23:31N 33°37' W 118°13'1428.2
2018-Aug-13 23:01N 33°24' W 118°18'3 6.1
2018-Aug-13 22:30N 33°21' W 118°19'5 9.1
2018-Aug-13 22:01N 33°25' W 118°17'1428.4
2018-Aug-13 21:31N 33°39' W 118°13'714.4
2018-Aug-13 21:00N 33°46' W 118°12'0 0.0
2018-Aug-13 20:30N 33°46' W 118°12'0 0.0
2018-Aug-13 20:01N 33°46' W 118°12'714.0
2018-Aug-13 19:31N 33°39' W 118°12'1427.9
2018-Aug-13 19:01N 33°26' W 118°17'510.4
2018-Aug-13 18:30N 33°21' W 118°19'0 0.5
2018-Aug-13 18:00N 33°21' W 118°19'1325.1
2018-Aug-13 17:31N 33°33' W 118°14'1325.6
2018-Aug-13 17:00N 33°45' W 118°11'1 1.6
2018-Aug-13 16:30N 33°46' W 118°12'0 0.0
2018-Aug-13 16:00N 33°46' W 118°12'815.7
2018-Aug-13 15:31N 33°38' W 118°12'1428.6
2018-Aug-13 15:01N 33°24' W 118°18'4 8.0
2018-Aug-13 14:31N 33°21' W 118°19'3 6.3
2018-Aug-13 14:00N 33°24' W 118°18'1427.5
2018-Aug-13 13:30N 33°37' W 118°13'918.1
2018-Aug-13 13:00N 33°46' W 118°12'0 0.0
2018-Aug-13 12:30N 33°46' W 118°12'0 0.0
2018-Aug-13 12:00N 33°46' W 118°12'0 0.0
2018-Aug-13 11:30N 33°46' W 118°12'0 0.0
2018-Aug-13 11:00N 33°46' W 118°12'0 0.0
2018-Aug-13 10:30N 33°46' W 118°12'0 0.0
2018-Aug-13 05:20N 33°46' W 118°12'0 0.0
2018-Aug-13 05:00N 33°46' W 118°12'0 0.0
2018-Aug-13 04:30N 33°46' W 118°12'0 0.0
2018-Aug-13 04:00N 33°46' W 118°12'2 3.5
2018-Aug-13 03:30N 33°44' W 118°11'1326.7
2018-Aug-13 03:01N 33°31' W 118°15'1122.8
2018-Aug-13 02:30N 33°21' W 118°19'0 0.0
2018-Aug-13 02:00N 33°21' W 118°19'1019.4
2018-Aug-13 01:30N 33°30' W 118°16'1428.7
2018-Aug-13 01:01N 33°44' W 118°11'2 4.7
2018-Aug-13 00:30N 33°46' W 118°12'2 3.7
2018-Aug-13 00:01N 33°44' W 118°11'1427.2
2018-Aug-12 23:31N 33°31' W 118°15'1122.0
2018-Aug-12 23:00N 33°21' W 118°19'0 0.0
2018-Aug-12 22:30N 33°21' W 118°19'612.7
2018-Aug-12 22:01N 33°27' W 118°17'1427.8
2018-Aug-12 21:31N 33°40' W 118°12'611.4
2018-Aug-12 21:00N 33°46' W 118°12'0 0.0
2018-Aug-12 20:30N 33°46' W 118°12'3 5.1
2018-Aug-12 20:01N 33°43' W 118°11'1427.3
2018-Aug-12 19:30N 33°30' W 118°15'1020.1
2018-Aug-12 19:00N 33°21' W 118°19'0 0.0
2018-Aug-12 18:30N 33°21' W 118°19'2 4.0
2018-Aug-12 18:00N 33°23' W 118°19'1427.8
2018-Aug-12 17:30N 33°36' W 118°14'1019.1
2018-Aug-12 16:59N 33°46' W 118°12'0 0.1
2018-Aug-12 16:30N 33°46' W 118°12'0 0.0
2018-Aug-12 16:00N 33°46' W 118°12'612.5
2018-Aug-12 15:30N 33°40' W 118°11'1529.6
2018-Aug-12 15:00N 33°26' W 118°17'510.4
2018-Aug-12 14:30N 33°21' W 118°19'612.3
2018-Aug-12 14:00N 33°26' W 118°16'1427.3
2018-Aug-12 13:30N 33°39' W 118°10'713.5
2018-Aug-12 13:00N 33°46' W 118°12'0 0.0
2018-Aug-12 12:30N 33°46' W 118°12'0 0.0
2018-Aug-12 12:00N 33°46' W 118°12'0 0.0
2018-Aug-12 11:30N 33°46' W 118°12'0 0.0
2018-Aug-12 11:00N 33°46' W 118°12'0 0.0
2018-Aug-12 05:31N 33°46' W 118°12'0 0.0
2018-Aug-12 05:30N 33°46' W 118°12'0 0.0
2018-Aug-12 05:00N 33°46' W 118°12'0 0.0
2018-Aug-12 04:30N 33°46' W 118°12'0 0.0
2018-Aug-12 04:00N 33°46' W 118°12'611.2
2018-Aug-12 03:31N 33°40' W 118°11'1325.5
2018-Aug-12 03:01N 33°28' W 118°16'811.8
2018-Aug-12 02:19N 33°21' W 118°19'1 2.0
2018-Aug-12 02:01N 33°21' W 118°19'1326.9
2018-Aug-12 01:30N 33°34' W 118°14'1223.2
2018-Aug-12 01:00N 33°45' W 118°12'0 0.9
2018-Aug-12 00:30N 33°46' W 118°12'0 0.5
2018-Aug-12 00:00N 33°46' W 118°12'917.3
2018-Aug-11 23:30N 33°37' W 118°12'1428.0
2018-Aug-11 23:01N 33°24' W 118°18'4 5.2
2018-Aug-11 22:19N 33°21' W 118°19'514.6
2018-Aug-11 22:00N 33°25' W 118°17'1427.7
2018-Aug-11 21:30N 33°38' W 118°12'815.5
2018-Aug-11 21:01N 33°46' W 118°12'0 0.0
2018-Aug-11 20:30N 33°46' W 118°12'0 0.0
2018-Aug-11 20:01N 33°46' W 118°12'613.0
2018-Aug-11 19:31N 33°39' W 118°11'1529.2
2018-Aug-11 19:00N 33°25' W 118°17'510.3
2018-Aug-11 18:30N 33°21' W 118°19'1 1.4
2018-Aug-11 18:00N 33°21' W 118°19'1326.7
2018-Aug-11 17:30N 33°34' W 118°14'1122.5
2018-Aug-11 17:00N 33°45' W 118°11'1 2.2
2018-Aug-11 16:30N 33°46' W 118°12'0 0.0
2018-Aug-11 16:00N 33°46' W 118°12'611.4
2018-Aug-11 15:31N 33°40' W 118°11'1529.6
2018-Aug-11 15:01N 33°26' W 118°17'611.6
2018-Aug-11 14:30N 33°21' W 118°19'5 9.2
2018-Aug-11 14:01N 33°25' W 118°17'1427.3
2018-Aug-11 13:31N 33°38' W 118°13'815.4
2018-Aug-11 13:00N 33°46' W 118°12'0 0.0
2018-Aug-11 12:29N 33°46' W 118°12'0 0.0
2018-Aug-11 12:00N 33°46' W 118°12'0 0.0
2018-Aug-11 11:30N 33°46' W 118°12'0 0.0
2018-Aug-11 11:00N 33°46' W 118°12'0 0.0
2018-Aug-11 10:30N 33°46' W 118°12'0 0.0
2018-Aug-11 10:01N 33°46' W 118°12'0 0.0
2018-Aug-11 09:30N 33°46' W 118°12'0 0.0
2018-Aug-11 09:00N 33°46' W 118°12'0 0.0
2018-Aug-11 08:30N 33°46' W 118°12'0 0.0
2018-Aug-11 08:00N 33°46' W 118°12'0 0.0
2018-Aug-11 07:30N 33°46' W 118°12'0 0.0
2018-Aug-11 07:00N 33°46' W 118°12'0 0.0
2018-Aug-11 06:30N 33°46' W 118°12'0 0.0
2018-Aug-11 06:00N 33°46' W 118°12'0 0.0
2018-Aug-11 05:30N 33°46' W 118°12'0 0.0
2018-Aug-11 05:00N 33°46' W 118°12'0 0.0
2018-Aug-11 04:30N 33°46' W 118°12'0 0.0
2018-Aug-11 04:00N 33°46' W 118°12'3 6.9
2018-Aug-11 03:30N 33°42' W 118°11'1427.7
2018-Aug-11 03:00N 33°29' W 118°15'918.2
2018-Aug-11 02:30N 33°21' W 118°19'0 0.0
2018-Aug-11 02:00N 33°21' W 118°19'1019.1
2018-Aug-11 01:31N 33°30' W 118°15'1529.3
2018-Aug-11 01:01N 33°44' W 118°11'2 4.6
2018-Aug-11 00:30N 33°46' W 118°12'1 1.2
2018-Aug-11 00:00N 33°45' W 118°11'1223.5
2018-Aug-10 23:31N 33°34' W 118°13'1427.0
2018-Aug-10 23:00N 33°21' W 118°19'1 1.0
2018-Aug-10 22:30N 33°21' W 118°19'5 9.1
2018-Aug-10 22:01N 33°25' W 118°17'1427.9
2018-Aug-10 21:31N 33°38' W 118°12'815.2
2018-Aug-10 21:00N 33°46' W 118°12'0 0.0
2018-Aug-10 20:30N 33°46' W 118°12'0 0.0
2018-Aug-10 20:00N 33°46' W 118°12'714.9
2018-Aug-10 19:31N 33°38' W 118°12'1428.2
2018-Aug-10 19:01N 33°25' W 118°18'5 9.1
2018-Aug-10 18:30N 33°21' W 118°19'1 1.4
2018-Aug-10 18:00N 33°21' W 118°19'1326.9
2018-Aug-10 17:31N 33°34' W 118°14'1222.9
2018-Aug-10 17:00N 33°46' W 118°12'0 0.7
2018-Aug-10 16:30N 33°46' W 118°12'0 0.0
2018-Aug-10 16:01N 33°46' W 118°12'510.9
2018-Aug-10 15:31N 33°40' W 118°11'1529.5
2018-Aug-10 15:01N 33°26' W 118°17'612.2
2018-Aug-10 14:30N 33°21' W 118°19'1 1.2
2018-Aug-10 14:00N 33°21' W 118°19'1429.0
2018-Aug-10 13:31N 33°35' W 118°14'1121.8
2018-Aug-10 13:01N 33°46' W 118°12'0 0.1
2018-Aug-10 12:31N 33°46' W 118°12'0 0.0
2018-Aug-10 12:01N 33°46' W 118°12'0 0.0
2018-Aug-10 11:31N 33°46' W 118°12'0 0.0
2018-Aug-10 11:01N 33°46' W 118°12'0 0.0
2018-Aug-10 10:30N 33°46' W 118°12'0 0.0
2018-Aug-10 10:00N 33°46' W 118°12'0 0.0
2018-Aug-10 09:30N 33°46' W 118°12'0 0.0
2018-Aug-10 09:01N 33°46' W 118°12'0 0.0
2018-Aug-10 08:30N 33°46' W 118°12'0 0.0
2018-Aug-10 08:01N 33°46' W 118°12'0 0.0
2018-Aug-10 07:31N 33°46' W 118°12'0 0.0
2018-Aug-10 07:00N 33°46' W 118°12'0 0.0
2018-Aug-10 06:31N 33°46' W 118°12'0 0.0
2018-Aug-10 06:00N 33°46' W 118°12'0 0.1
2018-Aug-10 05:31N 33°46' W 118°12'0 0.1
2018-Aug-10 05:01N 33°46' W 118°12'0 0.0
2018-Aug-10 04:30N 33°46' W 118°12'0 0.0
2018-Aug-10 04:00N 33°46' W 118°12'611.9
2018-Aug-10 03:31N 33°40' W 118°11'1326.7
2018-Aug-10 03:01N 33°27' W 118°16'714.0
2018-Aug-10 02:30N 33°21' W 118°19'0 0.9
2018-Aug-10 02:01N 33°21' W 118°19'1427.4
2018-Aug-10 01:31N 33°34' W 118°14'1122.9
2018-Aug-10 01:00N 33°45' W 118°11'1 1.9
2018-Aug-10 00:30N 33°46' W 118°12'1 1.9
2018-Aug-10 00:01N 33°45' W 118°11'1224.9
2018-Aug-09 23:31N 33°33' W 118°14'1325.2
2018-Aug-09 23:00N 33°21' W 118°19'0 0.7
2018-Aug-09 22:30N 33°21' W 118°19'  
Track history (hours):
 
Tides and Currents Weather Stations Pressure Air Temp Water Temp Dewpoint Dewpoint Depression Visibility Wind Speed Wind Dir Waves Ship Positions

Catalina Jet

Owner: RGWT, INC, San Pedro, CA. More information available from US FCC via Universal Licensing System and Coast Guard Vessel Documentation Center.

Last reported at 2018-Aug-19 22:30 UTC. Time now 2018-Aug-19 22:52 UTC.
Position N 33°21' W 118°19'.

Length 42 m; draft 3.7 m.

Type: High speed craft. MMSI: 367008510.

Date/timePositionNaut miles runAvg speedWind from/ knotsBaromVisibWave heightAir tempDewpointWater temp
2018-Aug-19 22:30N 33°21' W 118°19'713.5
2018-Aug-19 22:00N 33°27' W 118°17'1428.1
2018-Aug-19 21:31N 33°41' W 118°12'510.4
2018-Aug-19 21:00N 33°46' W 118°12'0 0.0
2018-Aug-19 20:30N 33°46' W 118°12'1 1.5
2018-Aug-19 20:01N 33°45' W 118°11'1325.1
2018-Aug-19 19:30N 33°33' W 118°14'1325.9
2018-Aug-19 19:00N 33°21' W 118°19'0 0.1
2018-Aug-19 18:30N 33°21' W 118°19'2 4.4
2018-Aug-19 18:01N 33°23' W 118°18'1427.7
2018-Aug-19 17:30N 33°36' W 118°14'1019.2
2018-Aug-19 17:00N 33°46' W 118°12'0 0.4
2018-Aug-19 16:30N 33°46' W 118°12'0 0.0
2018-Aug-19 16:00N 33°46' W 118°12'611.4
2018-Aug-19 15:31N 33°40' W 118°11'1529.6
2018-Aug-19 15:01N 33°26' W 118°17'611.7
2018-Aug-19 14:31N 33°21' W 118°19'4 8.3
2018-Aug-19 14:01N 33°24' W 118°17'1428.4
2018-Aug-19 13:31N 33°38' W 118°12'815.7
2018-Aug-19 13:00N 33°46' W 118°12'0 0.0
2018-Aug-19 12:30N 33°46' W 118°12'0 0.0
2018-Aug-19 12:01N 33°46' W 118°12'0 0.0
2018-Aug-19 11:30N 33°46' W 118°12'0 0.0
2018-Aug-19 11:00N 33°46' W 118°12'0 0.0
2018-Aug-19 10:30N 33°46' W 118°12'0 0.0
2018-Aug-19 10:00N 33°46' W 118°12'0 0.0
2018-Aug-19 09:30N 33°46' W 118°12'0 0.0
2018-Aug-19 09:00N 33°46' W 118°12'0 0.0
2018-Aug-19 08:30N 33°46' W 118°12'0 0.0
2018-Aug-19 08:00N 33°46' W 118°12'0 0.0
2018-Aug-19 07:30N 33°46' W 118°12'0 0.0
2018-Aug-19 07:00N 33°46' W 118°12'0 0.0
2018-Aug-19 06:30N 33°46' W 118°12'0 0.0
2018-Aug-19 06:00N 33°46' W 118°12'0 0.0
2018-Aug-19 05:30N 33°46' W 118°12'0 0.0
2018-Aug-19 05:00N 33°46' W 118°12'0 0.0
2018-Aug-19 04:30N 33°46' W 118°12'0 0.0
2018-Aug-19 04:00N 33°46' W 118°12'2 4.2
2018-Aug-19 03:30N 33°44' W 118°11'1326.1
2018-Aug-19 03:01N 33°31' W 118°14'1122.5
2018-Aug-19 02:31N 33°21' W 118°19'0 0.0
2018-Aug-19 02:00N 33°21' W 118°19'1019.3
2018-Aug-19 01:30N 33°30' W 118°16'1428.9
2018-Aug-19 01:01N 33°44' W 118°11'2 4.4
2018-Aug-19 00:30N 33°46' W 118°12'0 0.0
2018-Aug-19 00:00N 33°46' W 118°12'918.7
2018-Aug-18 23:31N 33°36' W 118°13'1427.7
2018-Aug-18 23:00N 33°23' W 118°18'3 5.7
2018-Aug-18 22:30N 33°21' W 118°19'3 6.7
2018-Aug-18 22:01N 33°24' W 118°18'1428.6
2018-Aug-18 21:31N 33°38' W 118°13'816.5
2018-Aug-18 21:00N 33°46' W 118°12'0 0.0
2018-Aug-18 20:30N 33°46' W 118°12'0 0.0
2018-Aug-18 20:00N 33°46' W 118°12'611.7
2018-Aug-18 19:31N 33°40' W 118°12'1529.4
2018-Aug-18 19:00N 33°26' W 118°17'610.8
2018-Aug-18 18:29N 33°21' W 118°19'1 2.6
2018-Aug-18 18:01N 33°22' W 118°19'1427.9
2018-Aug-18 17:31N 33°35' W 118°14'1121.0
2018-Aug-18 17:00N 33°46' W 118°12'0 0.3
2018-Aug-18 16:30N 33°46' W 118°12'1 1.4
2018-Aug-18 16:00N 33°45' W 118°11'1123.0
2018-Aug-18 15:31N 33°34' W 118°13'1428.0
2018-Aug-18 15:00N 33°21' W 118°19'0 0.2
2018-Aug-18 14:30N 33°21' W 118°19'611.8
2018-Aug-18 14:00N 33°26' W 118°17'1326.6
2018-Aug-18 13:31N 33°39' W 118°12'713.6
2018-Aug-18 13:00N 33°46' W 118°12'0 0.0
2018-Aug-18 12:30N 33°46' W 118°12'0 0.0
2018-Aug-18 12:00N 33°46' W 118°12'0 0.0
2018-Aug-18 11:31N 33°46' W 118°12'0 0.0
2018-Aug-18 11:00N 33°46' W 118°12'0 0.0
2018-Aug-18 10:30N 33°46' W 118°12'0 0.0
2018-Aug-18 04:02N 33°46' W 118°12'0 0.2
2018-Aug-18 04:00N 33°46' W 118°12'815.1
2018-Aug-18 03:30N 33°38' W 118°12'1427.5
2018-Aug-18 03:01N 33°25' W 118°17'5 9.9
2018-Aug-18 02:30N 33°21' W 118°19'0 0.3
2018-Aug-18 02:00N 33°21' W 118°19'1223.8
2018-Aug-18 01:30N 33°32' W 118°15'1427.0
2018-Aug-18 01:00N 33°45' W 118°11'1 1.8
2018-Aug-18 00:30N 33°46' W 118°12'0 0.9
2018-Aug-17 23:59N 33°45' W 118°12'1122.6
2018-Aug-17 23:30N 33°35' W 118°13'1427.1
2018-Aug-17 23:01N 33°22' W 118°19'1 2.6
2018-Aug-17 22:29N 33°21' W 118°19'4 7.7
2018-Aug-17 22:00N 33°24' W 118°18'1427.9
2018-Aug-17 21:31N 33°37' W 118°13'916.9
2018-Aug-17 21:00N 33°46' W 118°12'0 0.1
2018-Aug-17 20:31N 33°46' W 118°12'0 0.0
2018-Aug-17 20:01N 33°46' W 118°12'611.9
2018-Aug-17 19:31N 33°40' W 118°11'1529.6
2018-Aug-17 19:01N 33°26' W 118°17'611.0
2018-Aug-17 18:30N 33°21' W 118°19'0 0.9
2018-Aug-17 17:59N 33°21' W 118°19'1326.4
2018-Aug-17 17:31N 33°33' W 118°15'1325.0
2018-Aug-17 17:00N 33°45' W 118°11'1 1.2
2018-Aug-17 16:30N 33°46' W 118°12'0 0.0
2018-Aug-17 16:00N 33°46' W 118°12'611.3
2018-Aug-17 15:31N 33°40' W 118°11'1629.8
2018-Aug-17 14:59N 33°25' W 118°17'2 2.5
2018-Aug-17 14:01N 33°23' W 118°19'1428.7
2018-Aug-17 13:31N 33°37' W 118°13'917.6
2018-Aug-17 13:00N 33°46' W 118°12'0 0.0
2018-Aug-17 12:30N 33°46' W 118°12'0 0.0
2018-Aug-17 12:01N 33°46' W 118°12'0 0.0
2018-Aug-17 11:30N 33°46' W 118°12'0 0.0
2018-Aug-17 11:00N 33°46' W 118°12'0 0.0
2018-Aug-17 10:30N 33°46' W 118°12'0 0.0
2018-Aug-17 03:05N 33°46' W 118°12'0 0.1
2018-Aug-17 03:00N 33°46' W 118°12'0 0.0
2018-Aug-17 02:31N 33°46' W 118°12'918.6
2018-Aug-17 02:01N 33°36' W 118°12'1528.4
2018-Aug-17 01:29N 33°22' W 118°18'2 4.0
2018-Aug-17 01:00N 33°21' W 118°19'712.1
2018-Aug-17 00:25N 33°28' W 118°17'1229.3
2018-Aug-17 00:00N 33°39' W 118°13'713.4
2018-Aug-16 23:30N 33°46' W 118°12'0 0.0
2018-Aug-16 23:00N 33°46' W 118°12'0 0.0
2018-Aug-16 22:30N 33°46' W 118°12'510.3
2018-Aug-16 22:00N 33°41' W 118°11'1930.4
2018-Aug-16 21:23N 33°23' W 118°18'2 5.1
2018-Aug-16 20:59N 33°21' W 118°19'0 0.0
2018-Aug-16 20:29N 33°21' W 118°19'1223.5
2018-Aug-16 19:58N 33°32' W 118°14'1327.3
2018-Aug-16 19:30N 33°44' W 118°11'2 3.2
2018-Aug-16 19:00N 33°46' W 118°12'0 0.0
2018-Aug-16 18:30N 33°46' W 118°12'2 4.8
2018-Aug-16 18:00N 33°44' W 118°11'1529.7
2018-Aug-16 17:30N 33°29' W 118°16'917.4
2018-Aug-16 17:00N 33°21' W 118°19'0 0.2
2018-Aug-16 16:30N 33°21' W 118°19'1122.0
2018-Aug-16 16:00N 33°31' W 118°15'1427.2
2018-Aug-16 15:30N 33°44' W 118°11'2 3.5
2018-Aug-16 15:00N 33°46' W 118°12'0 0.0
2018-Aug-16 14:30N 33°46' W 118°12'0 0.0
2018-Aug-16 14:00N 33°46' W 118°12'0 0.0
2018-Aug-16 13:30N 33°46' W 118°12'0 0.0
2018-Aug-16 13:00N 33°46' W 118°12'0 0.0
2018-Aug-16 12:30N 33°46' W 118°12'0 0.0
2018-Aug-16 12:00N 33°46' W 118°12'0 0.0
2018-Aug-16 11:31N 33°46' W 118°12'0 0.0
2018-Aug-16 11:00N 33°46' W 118°12'0 0.0
2018-Aug-16 10:30N 33°46' W 118°12'0 0.0
2018-Aug-16 03:34N 33°46' W 118°12'0 5.4
2018-Aug-16 03:30N 33°46' W 118°12'1224.6
2018-Aug-16 03:01N 33°34' W 118°14'1325.4
2018-Aug-16 02:29N 33°21' W 118°19'0 0.0
2018-Aug-16 02:00N 33°21' W 118°19'1121.4
2018-Aug-16 01:30N 33°31' W 118°15'1428.3
2018-Aug-16 01:01N 33°44' W 118°11'2 3.3
2018-Aug-16 00:30N 33°46' W 118°12'0 0.0
2018-Aug-16 00:00N 33°46' W 118°12'816.4
2018-Aug-15 23:30N 33°38' W 118°12'1631.1
2018-Aug-15 23:01N 33°23' W 118°18'2 4.8
2018-Aug-15 22:30N 33°21' W 118°19'3 6.3
2018-Aug-15 22:00N 33°24' W 118°18'1529.7
2018-Aug-15 21:30N 33°38' W 118°13'815.9
2018-Aug-15 21:00N 33°46' W 118°12'0 0.2
2018-Aug-15 20:30N 33°46' W 118°12'0 0.0
2018-Aug-15 20:00N 33°46' W 118°12'815.5
2018-Aug-15 19:30N 33°38' W 118°12'1530.3
2018-Aug-15 19:01N 33°24' W 118°18'3 5.9
2018-Aug-15 18:27N 33°21' W 118°19'3 5.6
2018-Aug-15 18:00N 33°23' W 118°18'1327.4
2018-Aug-15 17:30N 33°36' W 118°13'1019.5
2018-Aug-15 17:00N 33°45' W 118°12'0 0.9
2018-Aug-15 16:30N 33°46' W 118°12'0 0.0
2018-Aug-15 16:01N 33°46' W 118°12'612.5
2018-Aug-15 15:31N 33°40' W 118°11'1530.0
2018-Aug-15 15:01N 33°25' W 118°17'5 9.7
2018-Aug-15 14:29N 33°21' W 118°19'4 7.7
2018-Aug-15 13:56N 33°25' W 118°18'1228.5
2018-Aug-15 13:31N 33°36' W 118°13'1019.2
2018-Aug-15 13:01N 33°46' W 118°12'0 0.1
2018-Aug-15 12:31N 33°46' W 118°12'0 0.0
2018-Aug-15 12:00N 33°46' W 118°12'0 0.0
2018-Aug-15 11:31N 33°46' W 118°12'0 0.0
2018-Aug-15 11:00N 33°46' W 118°12'0 0.0
2018-Aug-15 10:30N 33°46' W 118°12'0 0.0
2018-Aug-15 02:18N 33°46' W 118°12'517.7
2018-Aug-15 02:01N 33°41' W 118°11'1530.4
2018-Aug-15 01:30N 33°26' W 118°17'6 9.1
2018-Aug-15 00:51N 33°21' W 118°19'1 3.3
2018-Aug-15 00:31N 33°22' W 118°19'1530.1
2018-Aug-15 00:01N 33°36' W 118°13'1019.5
2018-Aug-14 23:30N 33°46' W 118°12'0 0.1
2018-Aug-14 23:00N 33°46' W 118°12'0 0.0
2018-Aug-14 22:30N 33°46' W 118°12'611.6
2018-Aug-14 22:00N 33°40' W 118°11'1529.5
2018-Aug-14 21:30N 33°26' W 118°17'611.5
2018-Aug-14 21:00N 33°21' W 118°19'0 0.0
2018-Aug-14 20:30N 33°21' W 118°19'1020.0
2018-Aug-14 20:01N 33°30' W 118°16'1428.0
2018-Aug-14 19:30N 33°44' W 118°11'2 4.6
2018-Aug-14 19:01N 33°46' W 118°12'0 0.0
2018-Aug-14 18:31N 33°46' W 118°12'4 8.5
2018-Aug-14 18:00N 33°42' W 118°11'1529.7
2018-Aug-14 17:31N 33°28' W 118°17'714.5
2018-Aug-14 17:00N 33°21' W 118°19'0 0.0
2018-Aug-14 16:30N 33°21' W 118°19'1019.1
2018-Aug-14 16:00N 33°30' W 118°15'1427.6
2018-Aug-14 15:31N 33°43' W 118°11'3 5.8
2018-Aug-14 15:00N 33°46' W 118°12'0 0.0
2018-Aug-14 14:30N 33°46' W 118°12'0 0.0
2018-Aug-14 14:00N 33°46' W 118°12'0 0.0
2018-Aug-14 13:30N 33°46' W 118°12'0 0.0
2018-Aug-14 13:00N 33°46' W 118°12'0 0.0
2018-Aug-14 12:30N 33°46' W 118°12'0 0.0
2018-Aug-14 12:00N 33°46' W 118°12'0 0.0
2018-Aug-14 11:30N 33°46' W 118°12'0 0.0
2018-Aug-14 11:00N 33°46' W 118°12'0 0.0
2018-Aug-14 04:21N 33°46' W 118°12'0 0.0
2018-Aug-14 04:01N 33°46' W 118°12'2 3.1
2018-Aug-14 03:31N 33°45' W 118°11'1427.1
2018-Aug-14 03:00N 33°31' W 118°15'1122.6
2018-Aug-14 02:30N 33°21' W 118°19'0 0.0
2018-Aug-14 02:00N 33°21' W 118°19'1122.2
2018-Aug-14 01:31N 33°31' W 118°15'1427.7
2018-Aug-14 01:00N 33°45' W 118°11'2 3.0
2018-Aug-14 00:30N 33°46' W 118°12'0 0.0
2018-Aug-14 00:00N 33°46' W 118°12'918.0
2018-Aug-13 23:31N 33°37' W 118°13'1428.2
2018-Aug-13 23:01N 33°24' W 118°18'3 6.1
2018-Aug-13 22:30N 33°21' W 118°19'5 9.1
2018-Aug-13 22:01N 33°25' W 118°17'1428.4
2018-Aug-13 21:31N 33°39' W 118°13'714.4
2018-Aug-13 21:00N 33°46' W 118°12'0 0.0
2018-Aug-13 20:30N 33°46' W 118°12'0 0.0
2018-Aug-13 20:01N 33°46' W 118°12'714.0
2018-Aug-13 19:31N 33°39' W 118°12'1427.9
2018-Aug-13 19:01N 33°26' W 118°17'510.4
2018-Aug-13 18:30N 33°21' W 118°19'0 0.5
2018-Aug-13 18:00N 33°21' W 118°19'1325.1
2018-Aug-13 17:31N 33°33' W 118°14'1325.6
2018-Aug-13 17:00N 33°45' W 118°11'1 1.6
2018-Aug-13 16:30N 33°46' W 118°12'0 0.0
2018-Aug-13 16:00N 33°46' W 118°12'815.7
2018-Aug-13 15:31N 33°38' W 118°12'1428.6
2018-Aug-13 15:01N 33°24' W 118°18'4 8.0
2018-Aug-13 14:31N 33°21' W 118°19'3 6.3
2018-Aug-13 14:00N 33°24' W 118°18'1427.5
2018-Aug-13 13:30N 33°37' W 118°13'918.1
2018-Aug-13 13:00N 33°46' W 118°12'0 0.0
2018-Aug-13 12:30N 33°46' W 118°12'0 0.0
2018-Aug-13 12:00N 33°46' W 118°12'0 0.0
2018-Aug-13 11:30N 33°46' W 118°12'0 0.0
2018-Aug-13 11:00N 33°46' W 118°12'0 0.0
2018-Aug-13 10:30N 33°46' W 118°12'0 0.0
2018-Aug-13 05:20N 33°46' W 118°12'0 0.0
2018-Aug-13 05:00N 33°46' W 118°12'0 0.0
2018-Aug-13 04:30N 33°46' W 118°12'0 0.0
2018-Aug-13 04:00N 33°46' W 118°12'2 3.5
2018-Aug-13 03:30N 33°44' W 118°11'1326.7
2018-Aug-13 03:01N 33°31' W 118°15'1122.8
2018-Aug-13 02:30N 33°21' W 118°19'0 0.0
2018-Aug-13 02:00N 33°21' W 118°19'1019.4
2018-Aug-13 01:30N 33°30' W 118°16'1428.7
2018-Aug-13 01:01N 33°44' W 118°11'2 4.7
2018-Aug-13 00:30N 33°46' W 118°12'2 3.7
2018-Aug-13 00:01N 33°44' W 118°11'1427.2
2018-Aug-12 23:31N 33°31' W 118°15'1122.0
2018-Aug-12 23:00N 33°21' W 118°19'0 0.0
2018-Aug-12 22:30N 33°21' W 118°19'612.7
2018-Aug-12 22:01N 33°27' W 118°17'1427.8
2018-Aug-12 21:31N 33°40' W 118°12'611.4
2018-Aug-12 21:00N 33°46' W 118°12'0 0.0
2018-Aug-12 20:30N 33°46' W 118°12'3 5.1
2018-Aug-12 20:01N 33°43' W 118°11'1427.3
2018-Aug-12 19:30N 33°30' W 118°15'1020.1
2018-Aug-12 19:00N 33°21' W 118°19'0 0.0
2018-Aug-12 18:30N 33°21' W 118°19'2 4.0
2018-Aug-12 18:00N 33°23' W 118°19'1427.8
2018-Aug-12 17:30N 33°36' W 118°14'1019.1
2018-Aug-12 16:59N 33°46' W 118°12'0 0.1
2018-Aug-12 16:30N 33°46' W 118°12'0 0.0
2018-Aug-12 16:00N 33°46' W 118°12'612.5
2018-Aug-12 15:30N 33°40' W 118°11'1529.6
2018-Aug-12 15:00N 33°26' W 118°17'510.4
2018-Aug-12 14:30N 33°21' W 118°19'612.3
2018-Aug-12 14:00N 33°26' W 118°16'1427.3
2018-Aug-12 13:30N 33°39' W 118°10'713.5
2018-Aug-12 13:00N 33°46' W 118°12'0 0.0
2018-Aug-12 12:30N 33°46' W 118°12'0 0.0
2018-Aug-12 12:00N 33°46' W 118°12'0 0.0
2018-Aug-12 11:30N 33°46' W 118°12'0 0.0
2018-Aug-12 11:00N 33°46' W 118°12'0 0.0
2018-Aug-12 05:31N 33°46' W 118°12'0 0.0
2018-Aug-12 05:30N 33°46' W 118°12'0 0.0
2018-Aug-12 05:00N 33°46' W 118°12'0 0.0
2018-Aug-12 04:30N 33°46' W 118°12'0 0.0
2018-Aug-12 04:00N 33°46' W 118°12'611.2
2018-Aug-12 03:31N 33°40' W 118°11'1325.5
2018-Aug-12 03:01N 33°28' W 118°16'811.8
2018-Aug-12 02:19N 33°21' W 118°19'1 2.0
2018-Aug-12 02:01N 33°21' W 118°19'1326.9
2018-Aug-12 01:30N 33°34' W 118°14'1223.2
2018-Aug-12 01:00N 33°45' W 118°12'0 0.9
2018-Aug-12 00:30N 33°46' W 118°12'0 0.5
2018-Aug-12 00:00N 33°46' W 118°12'917.3
2018-Aug-11 23:30N 33°37' W 118°12'1428.0
2018-Aug-11 23:01N 33°24' W 118°18'4 5.2
2018-Aug-11 22:19N 33°21' W 118°19'514.6
2018-Aug-11 22:00N 33°25' W 118°17'1427.7
2018-Aug-11 21:30N 33°38' W 118°12'815.5
2018-Aug-11 21:01N 33°46' W 118°12'0 0.0
2018-Aug-11 20:30N 33°46' W 118°12'0 0.0
2018-Aug-11 20:01N 33°46' W 118°12'613.0
2018-Aug-11 19:31N 33°39' W 118°11'1529.2
2018-Aug-11 19:00N 33°25' W 118°17'510.3
2018-Aug-11 18:30N 33°21' W 118°19'1 1.4
2018-Aug-11 18:00N 33°21' W 118°19'1326.7
2018-Aug-11 17:30N 33°34' W 118°14'1122.5
2018-Aug-11 17:00N 33°45' W 118°11'1 2.2
2018-Aug-11 16:30N 33°46' W 118°12'0 0.0
2018-Aug-11 16:00N 33°46' W 118°12'611.4
2018-Aug-11 15:31N 33°40' W 118°11'1529.6
2018-Aug-11 15:01N 33°26' W 118°17'611.6
2018-Aug-11 14:30N 33°21' W 118°19'5 9.2
2018-Aug-11 14:01N 33°25' W 118°17'1427.3
2018-Aug-11 13:31N 33°38' W 118°13'815.4
2018-Aug-11 13:00N 33°46' W 118°12'0 0.0
2018-Aug-11 12:29N 33°46' W 118°12'0 0.0
2018-Aug-11 12:00N 33°46' W 118°12'0 0.0
2018-Aug-11 11:30N 33°46' W 118°12'0 0.0
2018-Aug-11 11:00N 33°46' W 118°12'0 0.0
2018-Aug-11 10:30N 33°46' W 118°12'0 0.0
2018-Aug-11 10:01N 33°46' W 118°12'0 0.0
2018-Aug-11 09:30N 33°46' W 118°12'0 0.0
2018-Aug-11 09:00N 33°46' W 118°12'0 0.0
2018-Aug-11 08:30N 33°46' W 118°12'0 0.0
2018-Aug-11 08:00N 33°46' W 118°12'0 0.0
2018-Aug-11 07:30N 33°46' W 118°12'0 0.0
2018-Aug-11 07:00N 33°46' W 118°12'0 0.0
2018-Aug-11 06:30N 33°46' W 118°12'0 0.0
2018-Aug-11 06:00N 33°46' W 118°12'0 0.0
2018-Aug-11 05:30N 33°46' W 118°12'0 0.0
2018-Aug-11 05:00N 33°46' W 118°12'0 0.0
2018-Aug-11 04:30N 33°46' W 118°12'0 0.0
2018-Aug-11 04:00N 33°46' W 118°12'3 6.9
2018-Aug-11 03:30N 33°42' W 118°11'1427.7
2018-Aug-11 03:00N 33°29' W 118°15'918.2
2018-Aug-11 02:30N 33°21' W 118°19'0 0.0
2018-Aug-11 02:00N 33°21' W 118°19'1019.1
2018-Aug-11 01:31N 33°30' W 118°15'1529.3
2018-Aug-11 01:01N 33°44' W 118°11'2 4.6
2018-Aug-11 00:30N 33°46' W 118°12'1 1.2
2018-Aug-11 00:00N 33°45' W 118°11'1223.5
2018-Aug-10 23:31N 33°34' W 118°13'1427.0
2018-Aug-10 23:00N 33°21' W 118°19'1 1.0
2018-Aug-10 22:30N 33°21' W 118°19'5 9.1
2018-Aug-10 22:01N 33°25' W 118°17'1427.9
2018-Aug-10 21:31N 33°38' W 118°12'815.2
2018-Aug-10 21:00N 33°46' W 118°12'0 0.0
2018-Aug-10 20:30N 33°46' W 118°12'0 0.0
2018-Aug-10 20:00N 33°46' W 118°12'714.9
2018-Aug-10 19:31N 33°38' W 118°12'1428.2
2018-Aug-10 19:01N 33°25' W 118°18'5 9.1
2018-Aug-10 18:30N 33°21' W 118°19'1 1.4
2018-Aug-10 18:00N 33°21' W 118°19'1326.9
2018-Aug-10 17:31N 33°34' W 118°14'1222.9
2018-Aug-10 17:00N 33°46' W 118°12'0 0.7
2018-Aug-10 16:30N 33°46' W 118°12'0 0.0
2018-Aug-10 16:01N 33°46' W 118°12'510.9
2018-Aug-10 15:31N 33°40' W 118°11'1529.5
2018-Aug-10 15:01N 33°26' W 118°17'612.2
2018-Aug-10 14:30N 33°21' W 118°19'1 1.2
2018-Aug-10 14:00N 33°21' W 118°19'1429.0
2018-Aug-10 13:31N 33°35' W 118°14'1121.8
2018-Aug-10 13:01N 33°46' W 118°12'0 0.1
2018-Aug-10 12:31N 33°46' W 118°12'0 0.0
2018-Aug-10 12:01N 33°46' W 118°12'0 0.0
2018-Aug-10 11:31N 33°46' W 118°12'0 0.0
2018-Aug-10 11:01N 33°46' W 118°12'0 0.0
2018-Aug-10 10:30N 33°46' W 118°12'0 0.0
2018-Aug-10 10:00N 33°46' W 118°12'0 0.0
2018-Aug-10 09:30N 33°46' W 118°12'0 0.0
2018-Aug-10 09:01N 33°46' W 118°12'0 0.0
2018-Aug-10 08:30N 33°46' W 118°12'0 0.0
2018-Aug-10 08:01N 33°46' W 118°12'0 0.0
2018-Aug-10 07:31N 33°46' W 118°12'0 0.0
2018-Aug-10 07:00N 33°46' W 118°12'0 0.0
2018-Aug-10 06:31N 33°46' W 118°12'0 0.0
2018-Aug-10 06:00N 33°46' W 118°12'0 0.1
2018-Aug-10 05:31N 33°46' W 118°12'0 0.1
2018-Aug-10 05:01N 33°46' W 118°12'0 0.0
2018-Aug-10 04:30N 33°46' W 118°12'0 0.0
2018-Aug-10 04:00N 33°46' W 118°12'611.9
2018-Aug-10 03:31N 33°40' W 118°11'1326.7
2018-Aug-10 03:01N 33°27' W 118°16'714.0
2018-Aug-10 02:30N 33°21' W 118°19'0 0.9
2018-Aug-10 02:01N 33°21' W 118°19'1427.4
2018-Aug-10 01:31N 33°34' W 118°14'1122.9
2018-Aug-10 01:00N 33°45' W 118°11'1 1.9
2018-Aug-10 00:30N 33°46' W 118°12'1 1.9
2018-Aug-10 00:01N 33°45' W 118°11'1224.9
2018-Aug-09 23:31N 33°33' W 118°14'1325.2
2018-Aug-09 23:00N 33°21' W 118°19'0 0.7
2018-Aug-09 22:30N 33°21' W 118°19'  

Dump ship's entire track history